Time;durP1;ratioP1;P1;durP2;ratioP2;P2;SDS_P1;SDS_P2;PMS_P1;PMS_P2;Temp;Humidity;BMP_temperature;BMP_pressure;BME280_temperature;BME280_humidity;BME280_pressure;Samples;Min_cycle;Max_cycle;Signal;HPM_P1;HPM_P2
2021/03/30 00:00:56;;;;;;;27.08;9.82;;;7.30;99.90;;;;;;5071970;28;20067;-52
2021/03/30 00:03:21;;;;;;;28.92;9.57;;;7.30;99.90;;;;;;5065790;28;20139;-54
2021/03/30 00:05:47;;;;;;;26.80;9.05;;;7.40;99.90;;;;;;5071136;28;20059;-54
2021/03/30 00:08:14;;;;;;;28.20;8.80;;;7.40;99.90;;;;;;5060273;28;20510;-53
2021/03/30 00:10:43;;;;;;;28.25;9.15;;;7.40;99.90;;;;;;5067341;28;20482;-52
2021/03/30 00:13:09;;;;;;;26.15;8.90;;;7.50;99.90;;;;;;5068696;28;20063;-54
2021/03/30 00:15:35;;;;;;;27.73;9.30;;;7.50;99.90;;;;;;5071257;28;20052;-53
2021/03/30 00:18:01;;;;;;;27.88;9.60;;;7.60;99.90;;;;;;5070548;28;20079;-55
2021/03/30 00:20:27;;;;;;;26.13;9.75;;;7.40;99.90;;;;;;5067699;28;20029;-53
2021/03/30 00:22:53;;;;;;;25.77;10.45;;;7.20;99.90;;;;;;5069086;28;20035;-53
2021/03/30 00:25:18;;;;;;;38.17;9.52;;;7.10;99.90;;;;;;5070786;28;20099;-50
2021/03/30 00:27:44;;;;;;;27.45;8.60;;;7.10;99.90;;;;;;5070586;28;20017;-54
2021/03/30 00:30:11;;;;;;;17.85;7.95;;;7.10;99.90;;;;;;5068437;28;20107;-50
2021/03/30 00:32:37;;;;;;;19.33;7.35;;;7.20;99.90;;;;;;5071044;28;20025;-51
2021/03/30 00:35:07;;;;;;;27.42;7.82;;;7.30;99.90;;;;;;5070550;28;20097;-55
2021/03/30 00:37:33;;;;;;;14.57;7.40;;;7.40;99.90;;;;;;5070736;28;20032;-50
2021/03/30 00:39:58;;;;;;;17.42;7.65;;;7.40;99.90;;;;;;5063725;28;20028;-52
2021/03/30 00:42:24;;;;;;;22.10;7.45;;;7.40;99.90;;;;;;5070218;28;20540;-55
2021/03/30 00:44:51;;;;;;;20.00;8.15;;;7.40;99.90;;;;;;5070438;28;20649;-51
2021/03/30 00:47:18;;;;;;;19.67;7.45;;;7.20;99.90;;;;;;5070788;28;20103;-54
2021/03/30 00:49:46;;;;;;;21.50;8.65;;;7.00;99.90;;;;;;5069469;28;20066;-52
2021/03/30 00:52:12;;;;;;;16.90;7.18;;;6.80;99.90;;;;;;5070597;28;20105;-52
2021/03/30 00:54:37;;;;;;;25.75;9.15;;;6.80;99.90;;;;;;5070809;28;20479;-55
2021/03/30 00:57:06;;;;;;;18.00;7.55;;;6.80;99.90;;;;;;5066650;28;20025;-51
2021/03/30 00:59:32;;;;;;;19.10;8.45;;;6.80;99.90;;;;;;5068034;28;20016;-52
2021/03/30 01:01:58;;;;;;;17.58;7.65;;;6.80;99.90;;;;;;5066545;28;20016;-52
2021/03/30 01:04:24;;;;;;;22.08;8.02;;;6.80;99.90;;;;;;5069677;28;20020;-52
2021/03/30 01:06:50;;;;;;;21.83;7.45;;;6.80;99.90;;;;;;5070637;28;20132;-50
2021/03/30 01:09:30;;;;;;;20.45;6.82;;;6.70;99.90;;;;;;5068806;28;20024;-52
2021/03/30 01:12:22;;;;;;;15.20;6.80;;;6.70;99.90;;;;;;5070179;28;20111;-50
2021/03/30 01:15:35;;;;;;;18.25;7.43;;;6.60;99.90;;;;;;5064017;28;20487;-50
2021/03/30 01:18:20;;;;;;;20.85;7.18;;;6.50;99.90;;;;;;4994203;28;20093;-51
2021/03/30 01:21:24;;;;;;;17.33;6.75;;;6.50;99.90;;;;;;5069128;28;20032;-51
2021/03/30 01:24:13;;;;;;;27.35;6.13;;;6.50;99.90;;;;;;5062779;28;20055;-53
2021/03/30 01:26:56;;;;;;;16.15;6.28;;;6.50;99.90;;;;;;5061465;28;20024;-51
2021/03/30 01:29:50;;;;;;;15.95;6.47;;;6.50;99.90;;;;;;5060957;28;20038;-54
2021/03/30 01:32:48;;;;;;;13.63;5.82;;;6.60;99.90;;;;;;5062586;28;20027;-51
2021/03/30 01:35:16;;;;;;;15.88;5.63;;;6.70;99.90;;;;;;5062769;28;20078;-53
2021/03/30 01:37:46;;;;;;;18.67;6.43;;;6.70;99.90;;;;;;5060262;28;20048;-51
2021/03/30 01:40:15;;;;;;;15.48;6.22;;;6.80;99.90;;;;;;5058936;28;20027;-50
2021/03/30 01:42:42;;;;;;;16.80;6.15;;;6.80;99.90;;;;;;5060469;28;20021;-50
2021/03/30 01:45:09;;;;;;;15.43;5.60;;;6.80;99.90;;;;;;5063080;28;20108;-50
2021/03/30 01:47:37;;;;;;;16.38;6.20;;;6.60;99.90;;;;;;5061585;28;21736;-57
2021/03/30 01:50:05;;;;;;;18.27;5.50;;;6.60;99.90;;;;;;5061598;28;20521;-55
2021/03/30 01:52:33;;;;;;;14.07;6.28;;;6.60;99.90;;;;;;5062099;28;20196;-51
2021/03/30 01:54:59;;;;;;;18.73;6.25;;;6.40;99.90;;;;;;5061699;28;20052;-54
2021/03/30 01:57:28;;;;;;;17.20;6.00;;;6.30;99.90;;;;;;5062637;28;20036;-50
2021/03/30 01:59:54;;;;;;;14.02;6.18;;;6.20;99.90;;;;;;5058825;28;20029;-51
2021/03/30 02:02:21;;;;;;;17.90;7.80;;;6.20;99.90;;;;;;5059755;28;20029;-53
2021/03/30 02:04:49;;;;;;;17.75;6.00;;;6.10;99.90;;;;;;5064008;28;20017;-54
2021/03/30 02:07:16;;;;;;;15.60;6.90;;;6.00;99.90;;;;;;5068802;28;20025;-51
2021/03/30 02:09:45;;;;;;;16.67;6.93;;;6.00;99.90;;;;;;5068406;28;20012;-52
2021/03/30 02:12:13;;;;;;;16.80;6.63;;;5.90;99.90;;;;;;5071526;28;20584;-53
2021/03/30 02:14:39;;;;;;;14.52;5.97;;;5.80;99.90;;;;;;5072325;28;20524;-53
2021/03/30 02:17:25;;;;;;;12.82;6.63;;;5.80;99.90;;;;;;5073985;28;20032;-54
2021/03/30 02:20:04;;;;;;;14.07;5.80;;;5.90;99.90;;;;;;5071265;28;20020;-54
2021/03/30 02:22:42;;;;;;;17.05;6.75;;;6.00;99.90;;;;;;5069936;28;20103;-54
2021/03/30 02:25:08;;;;;;;23.67;6.65;;;6.00;99.90;;;;;;5073440;28;20025;-52
2021/03/30 02:27:37;;;;;;;17.98;6.07;;;6.10;99.90;;;;;;5070190;28;20078;-54
2021/03/30 02:30:06;;;;;;;14.93;6.40;;;6.00;99.90;;;;;;5071291;28;20048;-55
2021/03/30 02:32:33;;;;;;;12.88;6.53;;;6.10;99.90;;;;;;5070297;28;20025;-51
2021/03/30 02:35:02;;;;;;;20.50;6.85;;;6.10;99.90;;;;;;5072690;28;20080;-50
2021/03/30 02:37:28;;;;;;;13.35;6.28;;;6.00;99.90;;;;;;5070294;28;20037;-50
2021/03/30 02:39:54;;;;;;;19.92;7.45;;;5.90;99.90;;;;;;5071702;28;20028;-55
2021/03/30 02:42:20;;;;;;;20.83;7.10;;;5.80;99.90;;;;;;5073019;28;20033;-52
2021/03/30 02:44:49;;;;;;;13.30;6.50;;;5.70;99.90;;;;;;5067648;28;20074;-50
2021/03/30 02:47:18;;;;;;;19.67;7.20;;;5.80;99.90;;;;;;5072043;28;20540;-52
2021/03/30 02:49:45;;;;;;;11.55;5.93;;;5.70;99.90;;;;;;5070945;28;20059;-54
2021/03/30 02:52:13;;;;;;;16.23;6.35;;;5.70;99.90;;;;;;5073040;28;20028;-54
2021/03/30 02:54:39;;;;;;;15.60;6.53;;;5.80;99.90;;;;;;5069605;28;20050;-52
2021/03/30 02:57:06;;;;;;;14.73;6.40;;;5.80;99.90;;;;;;5071231;28;20031;-54
2021/03/30 02:59:32;;;;;;;13.20;7.30;;;5.90;99.90;;;;;;5071307;28;20017;-53
2021/03/30 03:01:59;;;;;;;13.90;5.82;;;5.90;99.90;;;;;;5067598;28;20032;-52
2021/03/30 03:04:26;;;;;;;15.40;6.40;;;5.80;99.90;;;;;;5071870;28;20022;-51
2021/03/30 03:06:53;;;;;;;16.60;7.22;;;5.80;99.90;;;;;;5072708;28;20079;-53
2021/03/30 03:09:19;;;;;;;15.05;7.10;;;5.70;99.90;;;;;;5071387;28;20033;-53
2021/03/30 03:11:47;;;;;;;16.02;6.57;;;5.50;99.90;;;;;;5066964;28;20402;-53
2021/03/30 03:14:14;;;;;;;17.30;5.97;;;5.40;99.90;;;;;;5069861;28;20033;-55
2021/03/30 03:16:42;;;;;;;14.73;6.70;;;5.40;99.90;;;;;;5072608;28;20028;-52
2021/03/30 03:19:09;;;;;;;15.25;6.15;;;5.40;99.90;;;;;;5070636;28;20028;-53
2021/03/30 03:21:36;;;;;;;18.35;6.40;;;5.40;99.90;;;;;;5071670;28;20013;-50
2021/03/30 03:24:03;;;;;;;19.42;6.30;;;5.40;99.90;;;;;;5063000;28;20078;-54
2021/03/30 03:26:30;;;;;;;13.27;5.85;;;5.50;99.90;;;;;;5071888;28;20024;-53
2021/03/30 03:28:55;;;;;;;15.15;5.72;;;5.50;99.90;;;;;;5070015;28;20090;-51
2021/03/30 03:31:29;;;;;;;18.15;7.72;;;5.60;99.90;;;;;;5072237;28;20666;-50
2021/03/30 03:34:01;;;;;;;12.82;6.25;;;5.60;99.90;;;;;;5065752;28;20035;-53
2021/03/30 03:36:38;;;;;;;14.68;5.82;;;5.60;99.90;;;;;;5072045;28;20024;-55
2021/03/30 03:39:06;;;;;;;20.80;6.88;;;5.50;99.90;;;;;;5069122;28;20952;-54
2021/03/30 03:41:31;;;;;;;22.13;6.10;;;5.40;99.90;;;;;;5070824;28;20032;-53
2021/03/30 03:43:57;;;;;;;16.23;6.82;;;5.40;99.90;;;;;;5071387;28;20028;-55
2021/03/30 03:46:23;;;;;;;19.17;6.57;;;5.50;99.90;;;;;;5071840;28;20494;-54
2021/03/30 03:48:48;;;;;;;19.23;6.18;;;5.40;99.90;;;;;;5071141;28;20066;-53
2021/03/30 03:51:15;;;;;;;13.32;6.13;;;5.20;99.90;;;;;;5068809;28;20452;-54
2021/03/30 03:53:42;;;;;;;18.98;6.45;;;5.00;99.90;;;;;;5068691;28;20028;-51
2021/03/30 03:56:09;;;;;;;13.82;5.75;;;4.90;99.90;;;;;;5070967;28;20051;-51
2021/03/30 03:58:40;;;;;;;18.45;5.75;;;4.90;99.90;;;;;;5070326;28;20028;-52
2021/03/30 04:01:12;;;;;;;16.83;7.65;;;5.00;99.90;;;;;;5071103;28;20456;-55
2021/03/30 04:03:47;;;;;;;14.38;5.90;;;5.10;99.90;;;;;;5068867;28;20039;-54
2021/03/30 04:06:17;;;;;;;14.23;6.28;;;5.10;99.90;;;;;;5065522;28;20029;-55
2021/03/30 04:08:50;;;;;;;11.63;6.15;;;5.10;99.90;;;;;;5065315;28;20025;-54
2021/03/30 04:11:16;;;;;;;17.25;6.50;;;5.10;99.90;;;;;;5070531;28;20104;-56
2021/03/30 04:13:45;;;;;;;14.90;6.85;;;5.20;99.90;;;;;;5068799;28;20108;-51
2021/03/30 04:16:11;;;;;;;12.95;5.70;;;5.30;99.90;;;;;;5071394;28;20024;-52
2021/03/30 04:18:40;;;;;;;16.02;6.00;;;5.30;99.90;;;;;;5070402;28;20048;-52
2021/03/30 04:21:15;;;;;;;13.73;5.75;;;5.20;99.90;;;;;;5065232;28;20033;-54
2021/03/30 04:23:45;;;;;;;14.35;6.13;;;5.20;99.90;;;;;;5070387;28;20016;-52
2021/03/30 04:26:11;;;;;;;14.05;6.18;;;5.20;99.90;;;;;;5070874;28;20036;-53
2021/03/30 04:28:37;;;;;;;14.95;5.68;;;5.20;99.90;;;;;;5069345;28;20490;-51
2021/03/30 04:31:03;;;;;;;18.73;8.95;;;5.20;99.90;;;;;;5070327;28;20025;-55
2021/03/30 04:33:28;;;;;;;23.17;6.10;;;5.10;99.90;;;;;;5069494;28;20103;-53
2021/03/30 04:35:54;;;;;;;17.70;7.50;;;5.00;99.90;;;;;;5070990;28;20533;-53
2021/03/30 04:38:20;;;;;;;15.10;5.78;;;5.00;99.90;;;;;;5069511;28;20028;-51
2021/03/30 04:40:51;;;;;;;14.10;6.07;;;4.90;99.90;;;;;;5069857;28;20390;-55
2021/03/30 04:43:16;;;;;;;15.95;5.88;;;4.80;99.90;;;;;;5069996;28;20051;-51
2021/03/30 04:45:42;;;;;;;17.63;7.55;;;4.70;99.90;;;;;;5070121;28;20032;-54
2021/03/30 04:48:08;;;;;;;11.90;6.18;;;4.60;99.90;;;;;;5070069;28;20038;-52
2021/03/30 04:50:33;;;;;;;14.30;6.53;;;4.60;99.90;;;;;;5070049;28;20123;-55
2021/03/30 04:52:59;;;;;;;12.63;5.75;;;4.60;99.90;;;;;;5069336;28;20103;-51
2021/03/30 04:55:24;;;;;;;17.52;7.50;;;4.70;99.90;;;;;;5068219;28;20036;-52
2021/03/30 04:57:50;;;;;;;16.40;6.47;;;4.80;99.90;;;;;;5063718;28;20041;-51
2021/03/30 05:00:17;;;;;;;17.92;6.40;;;4.90;99.90;;;;;;5069224;28;20054;-50
2021/03/30 05:02:44;;;;;;;19.95;6.97;;;4.90;99.90;;;;;;5070744;28;20029;-51
2021/03/30 05:05:10;;;;;;;13.68;7.53;;;5.00;99.90;;;;;;5069867;28;20020;-51
2021/03/30 05:07:36;;;;;;;17.25;6.88;;;5.00;99.90;;;;;;5069190;28;20050;-53
2021/03/30 05:10:02;;;;;;;20.48;6.47;;;5.00;99.90;;;;;;5068232;28;20047;-53
2021/03/30 05:12:27;;;;;;;14.30;6.75;;;5.10;99.90;;;;;;5068241;28;20078;-54
2021/03/30 05:14:53;;;;;;;23.92;6.55;;;5.00;99.90;;;;;;5069244;28;20119;-51
2021/03/30 05:17:18;;;;;;;19.02;7.43;;;5.00;99.90;;;;;;5069667;28;20033;-53
2021/03/30 05:19:44;;;;;;;18.35;7.13;;;4.80;99.90;;;;;;5069018;28;20033;-51
2021/03/30 05:22:09;;;;;;;17.80;6.75;;;4.70;99.90;;;;;;5070239;28;20542;-53
2021/03/30 05:24:35;;;;;;;14.80;6.57;;;4.70;99.90;;;;;;5070076;28;20513;-51
2021/03/30 05:27:00;;;;;;;21.90;7.68;;;4.70;99.90;;;;;;5069576;28;20082;-54
2021/03/30 05:29:26;;;;;;;14.40;6.82;;;4.60;99.90;;;;;;5069053;28;20048;-54
2021/03/30 05:31:52;;;;;;;17.10;7.35;;;4.60;99.90;;;;;;5066770;28;20033;-55
2021/03/30 05:34:17;;;;;;;27.00;8.25;;;4.60;99.90;;;;;;5069803;28;20032;-51
2021/03/30 05:36:43;;;;;;;14.68;7.35;;;4.50;99.90;;;;;;5070252;28;20566;-54
2021/03/30 05:39:08;;;;;;;19.08;7.28;;;4.40;99.90;;;;;;5068530;28;20439;-55
2021/03/30 05:41:37;;;;;;;15.60;7.40;;;4.50;99.90;;;;;;5069636;28;20032;-52
2021/03/30 05:44:03;;;;;;;17.83;7.47;;;4.50;99.90;;;;;;5068894;28;20042;-54
2021/03/30 05:46:31;;;;;;;24.23;7.60;;;4.60;99.90;;;;;;5067616;28;20037;-54
2021/03/30 05:48:56;;;;;;;23.45;7.43;;;4.50;99.90;;;;;;5065857;28;20036;-54
2021/03/30 05:51:23;;;;;;;24.33;7.70;;;4.60;99.90;;;;;;5069324;28;20028;-52
2021/03/30 05:53:55;;;;;;;22.30;7.93;;;4.70;99.90;;;;;;5057922;28;20033;-49
2021/03/30 05:56:22;;;;;;;13.90;6.60;;;4.80;99.90;;;;;;5068028;28;20024;-53
2021/03/30 05:58:48;;;;;;;17.33;7.38;;;4.90;99.90;;;;;;5068192;28;20099;-49
2021/03/30 06:01:15;;;;;;;17.02;6.97;;;5.00;99.90;;;;;;5065792;28;20040;-48
2021/03/30 06:03:41;;;;;;;25.20;7.25;;;5.00;99.90;;;;;;5069606;28;20032;-48
2021/03/30 06:06:07;;;;;;;16.10;7.40;;;5.00;99.90;;;;;;5067476;28;20490;-52
2021/03/30 06:08:33;;;;;;;16.55;6.97;;;5.10;99.90;;;;;;5067233;28;20102;-50
2021/03/30 06:11:04;;;;;;;22.25;7.55;;;5.20;99.90;;;;;;5069173;28;20394;-49
2021/03/30 06:13:56;;;;;;;18.30;7.68;;;5.20;99.90;;;;;;5062464;28;20732;-50
2021/03/30 06:16:40;;;;;;;24.50;7.70;;;5.30;99.90;;;;;;5066042;28;20051;-52
2021/03/30 06:19:10;;;;;;;16.90;7.50;;;5.40;99.90;;;;;;5065042;28;20048;-53
2021/03/30 06:21:41;;;;;;;19.65;8.13;;;5.50;99.90;;;;;;5069406;28;20040;-49
2021/03/30 06:24:30;;;;;;;20.02;8.57;;;5.60;99.90;;;;;;5067422;28;20060;-49
2021/03/30 06:27:03;;;;;;;16.10;8.02;;;5.60;99.90;;;;;;5068552;28;20035;-51
2021/03/30 06:29:36;;;;;;;19.45;7.35;;;5.70;99.90;;;;;;5064628;28;20032;-49
2021/03/30 06:32:09;;;;;;;17.42;8.15;;;5.80;99.90;;;;;;5066392;28;20151;-49
2021/03/30 06:34:36;;;;;;;28.58;8.32;;;5.90;99.90;;;;;;5068362;28;20025;-50
2021/03/30 06:37:28;;;;;;;14.82;7.05;;;6.00;99.90;;;;;;5068263;28;20029;-53
2021/03/30 06:40:10;;;;;;;20.35;8.20;;;6.10;99.90;;;;;;5063575;28;20070;-53
2021/03/30 06:44:24;;;;;;;16.42;6.75;;;6.20;99.90;;;;;;5068337;28;20135;-49
2021/03/30 06:45:28;;;;;;;16.13;7.93;;;6.40;99.90;;;;;;5064064;28;20036;-51
2021/03/30 06:48:00;;;;;;;15.48;7.40;;;6.50;99.90;;;;;;5063340;28;20028;-52
2021/03/30 06:50:28;;;;;;;22.92;8.80;;;6.60;99.90;;;;;;5067427;28;20691;-52
2021/03/30 06:53:08;;;;;;;25.88;9.07;;;6.70;99.90;;;;;;5066583;28;20032;-54
2021/03/30 06:55:34;;;;;;;21.55;7.85;;;6.80;99.90;;;;;;5067278;28;20028;-53
2021/03/30 06:58:01;;;;;;;18.63;7.57;;;6.90;99.90;;;;;;5066342;28;20534;-51
2021/03/30 07:00:35;;;;;;;14.50;7.32;;;7.10;99.90;;;;;;5064970;28;20024;-50
2021/03/30 07:03:10;;;;;;;19.58;7.07;;;7.20;99.90;;;;;;5066677;28;20028;-49
2021/03/30 07:05:38;;;;;;;16.00;6.72;;;7.30;99.90;;;;;;5072697;28;20716;-54
2021/03/30 07:08:08;;;;;;;11.50;6.03;;;7.40;99.90;;;;;;5068387;28;20094;-53
2021/03/30 07:10:40;;;;;;;20.63;9.30;;;7.60;99.90;;;;;;5071309;28;20406;-53
2021/03/30 07:13:07;;;;;;;20.17;8.18;;;7.70;99.90;;;;;;5068473;28;20495;-52
2021/03/30 07:15:33;;;;;;;14.43;6.80;;;7.80;99.90;;;;;;5067165;28;20047;-51
2021/03/30 07:18:22;;;;;;;20.52;6.55;;;7.90;99.90;;;;;;5069661;28;20028;-50
2021/03/30 07:20:56;;;;;;;22.83;8.07;;;8.00;99.90;;;;;;5072070;28;20028;-50
2021/03/30 07:23:26;;;;;;;12.60;6.60;;;8.10;99.90;;;;;;5066889;28;20394;-50
2021/03/30 07:26:01;;;;;;;18.33;6.20;;;8.20;99.90;;;;;;5069453;28;20499;-49
2021/03/30 07:28:29;;;;;;;17.08;7.82;;;8.30;99.90;;;;;;5068316;28;20040;-49
2021/03/30 07:31:02;;;;;;;13.93;6.85;;;8.40;99.90;;;;;;5071085;28;20559;-49
2021/03/30 07:33:45;;;;;;;14.50;6.65;;;8.60;99.90;;;;;;5072491;28;20033;-49
2021/03/30 07:36:11;;;;;;;18.75;7.00;;;8.70;99.90;;;;;;5070292;28;20029;-50
2021/03/30 07:38:41;;;;;;;20.73;6.53;;;8.90;99.90;;;;;;5068467;28;20056;-53
2021/03/30 07:41:07;;;;;;;12.50;6.63;;;9.00;99.90;;;;;;5068254;28;20147;-49
2021/03/30 07:43:33;;;;;;;19.70;6.57;;;9.20;99.90;;;;;;5070220;28;20123;-51
2021/03/30 07:46:01;;;;;;;11.70;5.72;;;9.20;99.90;;;;;;5067547;28;20425;-49
2021/03/30 07:48:32;;;;;;;13.93;6.57;;;9.30;99.90;;;;;;5067585;28;20029;-52
2021/03/30 07:51:08;;;;;;;12.07;5.78;;;9.40;99.90;;;;;;5071452;28;20493;-52
2021/03/30 07:53:43;;;;;;;19.77;8.15;;;9.60;99.90;;;;;;5069840;28;20024;-52
2021/03/30 07:56:32;;;;;;;16.23;7.35;;;9.60;99.90;;;;;;5067800;28;20044;-49
2021/03/30 07:58:59;;;;;;;16.23;6.95;;;9.80;99.90;;;;;;5065106;28;20131;-50
2021/03/30 08:01:26;;;;;;;14.82;6.72;;;9.90;99.90;;;;;;5067483;28;20025;-52
2021/03/30 08:03:54;;;;;;;12.90;6.35;;;10.00;99.90;;;;;;5067352;28;20041;-51
2021/03/30 08:06:23;;;;;;;20.83;6.50;;;10.20;99.90;;;;;;5066888;28;20575;-53
2021/03/30 08:09:04;;;;;;;20.42;6.38;;;10.30;99.90;;;;;;5061953;28;20035;-51
2021/03/30 08:11:46;;;;;;;21.70;8.77;;;10.40;99.90;;;;;;5066576;28;20047;-50
2021/03/30 08:14:28;;;;;;;17.85;9.40;;;10.50;99.90;;;;;;5064181;28;20025;-49
2021/03/30 08:16:56;;;;;;;13.93;6.40;;;10.70;99.90;;;;;;5062509;28;20095;-50
2021/03/30 08:19:26;;;;;;;20.63;6.82;;;10.80;99.90;;;;;;5056579;28;20048;-49
2021/03/30 08:21:58;;;;;;;15.13;6.72;;;11.00;99.90;;;;;;5068777;28;20083;-49
2021/03/30 08:24:48;;;;;;;12.15;6.10;;;11.10;99.90;;;;;;5062541;28;20453;-51
2021/03/30 08:27:35;;;;;;;16.65;6.38;;;11.20;99.90;;;;;;5065015;28;20021;-54
2021/03/30 08:30:21;;;;;;;20.70;6.38;;;11.40;99.90;;;;;;5062878;28;20020;-51
2021/03/30 08:32:48;;;;;;;16.10;6.13;;;11.60;99.90;;;;;;5023133;28;20612;-51
2021/03/30 08:35:38;;;;;;;13.43;5.47;;;11.70;99.90;;;;;;5062450;28;20051;-53
2021/03/30 08:38:05;;;;;;;14.23;6.63;;;11.90;99.90;;;;;;5062787;28;20029;-50
2021/03/30 08:40:36;;;;;;;12.57;5.75;;;12.00;99.90;;;;;;5060390;28;20036;-52
2021/03/30 08:43:14;;;;;;;14.85;6.65;;;12.10;99.90;;;;;;5065968;28;20037;-53
2021/03/30 08:46:00;;;;;;;14.18;6.43;;;12.20;99.90;;;;;;5061730;28;20025;-50
2021/03/30 08:48:49;;;;;;;13.13;5.63;;;12.40;99.90;;;;;;5067430;28;20398;-51
2021/03/30 08:51:18;;;;;;;10.75;5.55;;;12.60;99.90;;;;;;5065592;28;20115;-53
2021/03/30 08:53:45;;;;;;;21.83;7.05;;;12.70;99.90;;;;;;5062647;28;20046;-51
2021/03/30 08:56:12;;;;;;;13.75;5.97;;;12.80;99.90;;;;;;5065830;28;20020;-55
2021/03/30 08:58:48;;;;;;;20.08;6.38;;;12.90;99.90;;;;;;5061519;28;20032;-55
2021/03/30 09:01:14;;;;;;;16.95;6.00;;;13.10;99.90;;;;;;5061303;28;20060;-57
2021/03/30 09:03:41;;;;;;;13.73;6.18;;;13.30;99.90;;;;;;5063823;28;20478;-56
2021/03/30 09:06:28;;;;;;;12.00;5.82;;;13.40;99.90;;;;;;5063476;28;20021;-55
2021/03/30 09:08:54;;;;;;;10.57;5.75;;;13.70;99.90;;;;;;5060633;28;20056;-52
2021/03/30 09:11:25;;;;;;;11.43;5.95;;;13.80;99.90;;;;;;5060333;28;20055;-57
2021/03/30 09:14:07;;;;;;;20.08;6.35;;;13.90;99.90;;;;;;5064544;28;20032;-56
2021/03/30 09:16:35;;;;;;;12.85;4.93;;;14.10;99.90;;;;;;5066560;28;20024;-55
2021/03/30 09:19:14;;;;;;;14.45;5.40;;;14.20;99.90;;;;;;5063495;28;20050;-54
2021/03/30 09:21:41;;;;;;;12.10;5.57;;;14.40;99.90;;;;;;5058206;28;20028;-53
2021/03/30 09:24:14;;;;;;;13.40;5.38;;;14.60;99.90;;;;;;5062686;28;20066;-56
2021/03/30 09:26:41;;;;;;;15.05;4.97;;;14.90;99.90;;;;;;5062886;28;20025;-54
2021/03/30 09:29:08;;;;;;;12.60;5.70;;;15.20;99.90;;;;;;5060031;28;20552;-54
2021/03/30 09:31:35;;;;;;;9.95;4.70;;;15.30;99.90;;;;;;5065190;28;20048;-55
2021/03/30 09:34:01;;;;;;;10.40;4.90;;;15.40;99.90;;;;;;5062804;28;20434;-52
2021/03/30 09:36:27;;;;;;;12.70;4.95;;;15.60;99.90;;;;;;5061568;28;20025;-52
2021/03/30 09:38:57;;;;;;;12.55;5.10;;;15.70;99.90;;;;;;5058313;28;20512;-52
2021/03/30 09:41:40;;;;;;;11.88;4.63;;;15.90;99.90;;;;;;5068340;28;20124;-55
2021/03/30 09:44:07;;;;;;;11.73;5.13;;;16.10;99.90;;;;;;5061855;28;20029;-54
2021/03/30 09:46:33;;;;;;;10.93;4.85;;;16.30;99.90;;;;;;5063439;28;20025;-52
2021/03/30 09:48:59;;;;;;;12.85;5.30;;;16.50;99.90;;;;;;5059711;28;20421;-54
2021/03/30 09:51:25;;;;;;;18.27;5.43;;;16.60;99.90;;;;;;5067239;28;20025;-56
2021/03/30 09:53:51;;;;;;;11.95;5.40;;;16.70;99.90;;;;;;5063647;28;20393;-55
2021/03/30 09:56:28;;;;;;;17.25;5.13;;;16.90;99.90;;;;;;5066959;28;20497;-53
2021/03/30 09:58:59;;;;;;;14.75;5.15;;;17.20;99.90;;;;;;5063200;28;20032;-56
2021/03/30 10:01:25;;;;;;;13.68;5.18;;;17.40;99.90;;;;;;5068476;28;20032;-55
2021/03/30 10:03:51;;;;;;;7.95;3.63;;;17.70;99.90;;;;;;5064098;28;20085;-54
2021/03/30 10:06:20;;;;;;;10.98;4.38;;;17.80;99.90;;;;;;5067797;28;20440;-52
2021/03/30 10:08:47;;;;;;;12.65;4.95;;;18.00;99.90;;;;;;5063141;28;20154;-56
2021/03/30 10:11:24;;;;;;;12.20;4.35;;;18.20;99.90;;;;;;5065803;28;20028;-55
2021/03/30 10:13:49;;;;;;;10.43;4.30;;;18.30;99.90;;;;;;5065336;28;20032;-56
2021/03/30 10:16:15;;;;;;;8.18;4.65;;;18.60;99.90;;;;;;5062703;28;20039;-54
2021/03/30 10:18:44;;;;;;;15.07;4.30;;;19.00;99.90;;;;;;5064785;28;20033;-55
2021/03/30 10:21:20;;;;;;;11.20;4.10;;;19.20;99.90;;;;;;5063193;28;20111;-52
2021/03/30 10:23:51;;;;;;;16.02;4.32;;;19.40;99.90;;;;;;5069119;28;20024;-52
2021/03/30 10:26:22;;;;;;;9.45;4.50;;;19.50;99.90;;;;;;5065749;28;20017;-56
2021/03/30 10:29:13;;;;;;;13.68;4.80;;;19.80;99.90;;;;;;5065549;28;20020;-56
2021/03/30 10:34:32;;;;;;;14.82;5.72;;;20.20;99.90;;;;;;5070119;28;20024;-53
2021/03/30 10:37:10;;;;;;;13.35;4.95;;;20.30;99.90;;;;;;5072675;28;20032;-58
2021/03/30 10:39:38;;;;;;;13.15;6.10;;;20.60;99.90;;;;;;5071977;28;20100;-53
2021/03/30 10:42:07;;;;;;;15.65;6.88;;;20.70;99.60;;;;;;5073076;28;20433;-52
2021/03/30 10:44:38;;;;;;;23.38;7.65;;;21.00;99.70;;;;;;5072861;28;20437;-51
2021/03/30 10:47:17;;;;;;;19.70;7.85;;;21.10;96.10;;;;;;5065625;28;20033;-55
2021/03/30 10:49:44;;;;;;;20.05;8.57;;;21.20;97.20;;;;;;5064005;28;20473;-52
2021/03/30 10:52:22;;;;;;;20.25;8.75;;;21.30;96.90;;;;;;5072332;28;20425;-53
2021/03/30 10:54:49;;;;;;;19.30;8.90;;;21.60;96.40;;;;;;5061544;28;20024;-56
2021/03/30 10:57:18;;;;;;;18.05;7.72;;;21.70;93.10;;;;;;5064609;28;20067;-55
2021/03/30 10:59:44;;;;;;;19.33;8.95;;;21.80;92.40;;;;;;5072539;28;20043;-56
2021/03/30 11:02:11;;;;;;;22.92;8.30;;;21.90;93.30;;;;;;5069177;28;20029;-58
2021/03/30 11:04:38;;;;;;;20.25;7.88;;;22.10;93.10;;;;;;5058349;28;20892;-56
2021/03/30 11:07:05;;;;;;;18.55;7.15;;;22.20;92.60;;;;;;5069718;28;20103;-55
2021/03/30 11:09:31;;;;;;;17.98;7.30;;;22.50;93.00;;;;;;5064213;28;20020;-51
2021/03/30 11:11:57;;;;;;;14.65;7.45;;;22.70;89.30;;;;;;5070157;28;20047;-52
2021/03/30 11:14:23;;;;;;;12.45;6.95;;;22.70;87.30;;;;;;5072026;28;20367;-55
2021/03/30 11:16:49;;;;;;;15.70;6.32;;;22.90;84.80;;;;;;5064431;28;20073;-53
2021/03/30 11:19:16;;;;;;;16.08;5.53;;;23.00;86.30;;;;;;5068216;28;20562;-56
2021/03/30 11:21:42;;;;;;;12.80;5.13;;;23.00;83.70;;;;;;5069442;28;20032;-55
2021/03/30 11:24:13;;;;;;;13.70;5.88;;;23.00;79.40;;;;;;5068914;28;20094;-52
2021/03/30 11:26:41;;;;;;;11.65;4.82;;;22.90;80.60;;;;;;5072172;28;20035;-53
2021/03/30 11:29:10;;;;;;;11.35;4.75;;;22.90;79.80;;;;;;5063959;28;20486;-55
2021/03/30 11:34:56;;;;;;;12.20;4.93;;;23.20;79.60;;;;;;5064559;28;20032;-54
2021/03/30 11:37:20;;;;;;;11.70;4.47;;;23.30;77.70;;;;;;5060159;28;20040;-55
2021/03/30 11:39:45;;;;;;;12.18;4.95;;;23.50;73.90;;;;;;5068357;28;20490;-55
2021/03/30 11:42:11;;;;;;;8.63;4.07;;;23.40;72.20;;;;;;5050410;28;20036;-54
2021/03/30 11:44:37;;;;;;;10.73;4.05;;;23.60;70.80;;;;;;5067535;28;20394;-53
2021/03/30 11:47:03;;;;;;;12.35;4.97;;;23.80;70.00;;;;;;5065498;28;20017;-54
2021/03/30 11:49:33;;;;;;;7.65;4.10;;;23.70;68.10;;;;;;5069927;28;20559;-50
2021/03/30 11:52:00;;;;;;;9.02;4.00;;;23.80;68.10;;;;;;5062689;28;20029;-50
2021/03/30 11:54:26;;;;;;;10.43;3.75;;;23.90;67.30;;;;;;5070566;28;20028;-48
2021/03/30 11:56:52;;;;;;;8.77;4.38;;;24.00;68.60;;;;;;5070331;28;20036;-54
2021/03/30 11:59:17;;;;;;;11.25;4.38;;;23.90;66.60;;;;;;5069829;28;20021;-49
2021/03/30 12:01:44;;;;;;;15.70;3.88;;;23.90;66.30;;;;;;5068896;28;20040;-52
2021/03/30 12:04:09;;;;;;;8.30;3.90;;;24.10;68.60;;;;;;5069732;28;20044;-51
2021/03/30 12:06:35;;;;;;;9.75;3.88;;;24.30;68.40;;;;;;5061989;28;20541;-52
2021/03/30 12:09:02;;;;;;;8.07;4.07;;;24.50;69.00;;;;;;5069225;28;20040;-48
2021/03/30 12:11:29;;;;;;;13.82;3.75;;;24.70;67.90;;;;;;5070958;28;20029;-49
2021/03/30 12:13:54;;;;;;;12.20;4.18;;;24.60;68.70;;;;;;5071505;28;20419;-49
2021/03/30 12:16:20;;;;;;;12.20;4.43;;;24.50;66.70;;;;;;5071349;28;20109;-50
2021/03/30 12:18:45;;;;;;;9.73;4.55;;;24.70;63.00;;;;;;5066703;28;20107;-50
2021/03/30 12:21:11;;;;;;;14.63;4.32;;;24.60;62.00;;;;;;5065444;28;20028;-52
2021/03/30 12:23:37;;;;;;;6.10;3.65;;;24.60;63.70;;;;;;5066600;28;20113;-49
2021/03/30 12:26:02;;;;;;;7.35;3.28;;;24.80;64.90;;;;;;5064546;28;20028;-51
2021/03/30 12:28:28;;;;;;;9.60;3.70;;;24.80;61.10;;;;;;5063046;28;20427;-55
2021/03/30 12:30:54;;;;;;;7.10;3.13;;;24.80;61.60;;;;;;5065646;28;20041;-54
2021/03/30 12:33:19;;;;;;;8.50;3.70;;;24.90;61.10;;;;;;5067627;28;20040;-53
2021/03/30 12:35:45;;;;;;;13.02;3.97;;;25.00;64.90;;;;;;5070495;28;20510;-53
2021/03/30 12:38:11;;;;;;;13.65;3.67;;;25.30;64.70;;;;;;5066785;28;20066;-54
2021/03/30 12:40:37;;;;;;;9.77;3.70;;;25.30;62.20;;;;;;5065298;28;20119;-49
2021/03/30 12:43:04;;;;;;;5.38;2.67;;;25.20;56.80;;;;;;5065448;28;20024;-51
2021/03/30 12:45:33;;;;;;;3.25;2.33;;;25.20;54.80;;;;;;5066650;28;20513;-50
2021/03/30 12:47:59;;;;;;;6.55;2.55;;;25.20;54.60;;;;;;5065321;28;20107;-51
2021/03/30 12:50:26;;;;;;;4.28;2.95;;;25.30;55.50;;;;;;5061455;28;20064;-51
2021/03/30 12:52:52;;;;;;;9.80;3.20;;;25.30;56.50;;;;;;5065821;28;20071;-51
2021/03/30 12:55:18;;;;;;;7.63;2.75;;;25.30;56.20;;;;;;5070907;28;20052;-55
2021/03/30 12:57:43;;;;;;;8.00;2.60;;;25.50;59.00;;;;;;5063905;28;20028;-52
2021/03/30 13:00:09;;;;;;;10.77;2.22;;;25.50;54.20;;;;;;5066217;28;20040;-49
2021/03/30 13:02:35;;;;;;;8.68;2.63;;;25.60;51.70;;;;;;5067480;28;20020;-53